Flight Track Log - Related Links

Times and Time Zones

All times are in EDT time to prevent confusion due to time zone crossing. See the UAL4422 flight status page for this flight to view local times or setup timezone preferences in your user account.

Time Position Orientation Groundspeed Altitude Reporting Facility
EDT Latitude Longitude Course Direction KTS MPH feet Rate Location/Type
Tue 04:20:55 PM 29.9594 -95.3414 276° West 155 178 800  Level Houston Center
Tue 04:22:13 PM 29.9081 -95.3775 211° Southwest 236 272 2,700 1,822 Climbing Houston Center
Tue 04:23:10 PM 29.8708 -95.4533 241° Southwest 268 308 4,900 2,288 Climbing Houston Center
Tue 04:24:00 PM 30.0291 -95.7617 277° West  Level FlightAware Approximate
Tue 04:24:11 PM 29.8911 -95.5375 286° West 281 323 7,200  Level Houston Center
Tue 04:25:00 PM 30.0392 -95.8694 276° West  Level FlightAware Approximate
Tue 04:25:13 PM 29.9158 -95.6239 288° West 277 319 9,500  Level Houston Center
Tue 04:26:00 PM 30.0481 -95.9773 276° West  Level FlightAware Approximate
Tue 04:26:22 PM 29.9444 -95.7136 290° West 286 329 10,800  Level Houston Center
Tue 04:27:24 PM 29.9739 -95.8153 289° West 331 381 11,500 1,065 Climbing Houston Center
Tue 04:28:26 PM 30.0058 -95.9222 289° West 352 405 13,000 1,548 Climbing Houston Center
Tue 04:29:28 PM 30.0439 -96.0519 289° West 351 404 14,700 1,344 Climbing Houston Center
Tue 04:30:31 PM 30.0758 -96.1608 289° West 360 414 15,800 1,248 Climbing Houston Center
Tue 04:31:33 PM 30.1042 -96.2711 287° West 360 414 17,300 1,210 Climbing Houston Center
Tue 04:32:35 PM 30.1200 -96.3836 279° West 358 412 18,300 1,113 Climbing Houston Center
Tue 04:33:37 PM 30.1375 -96.5006 280° West 363 418 19,600 1,161 Climbing Houston Center
Tue 04:34:39 PM 30.1564 -96.6164 281° West 363 418 20,700 1,161 Climbing Houston Center
Tue 04:35:41 PM 30.1758 -96.7561 279° West 372 428 22,000 1,200 Climbing Houston Center
Tue 04:36:44 PM 30.1950 -96.8758 281° West 374 430 23,200 1,296 Climbing Houston Center
Tue 04:37:46 PM 30.2119 -96.9942 279° West 371 427 24,700 1,452 Climbing Houston Center
Tue 04:38:48 PM 30.2289 -97.1089 280° West 363 418 26,200 1,403 Climbing Houston Center
Tue 04:39:50 PM 30.2456 -97.2211 280° West 355 409 27,600 871 Climbing Houston Center
Tue 04:40:52 PM 30.2614 -97.3328 279° West 349 402 28,000 194 Climbing Houston Center
Tue 04:41:54 PM 30.2786 -97.4533 279° West 363 418 28,000  Level Houston Center
Tue 04:42:56 PM 30.2969 -97.5750 280° West 377 434 28,000  Level Houston Center
Tue 04:43:59 PM 30.3178 -97.7239 279° West 393 452 28,000  Level Houston Center
Tue 04:45:01 PM 30.3353 -97.8533 279° West 399 459 28,000  Level Houston Center
Tue 04:46:03 PM 30.3544 -97.9825 280° West 401 461 28,000  Level Houston Center
Tue 04:47:05 PM 30.3725 -98.1139 279° West 406 467 28,000  Level Houston Center
Tue 04:48:07 PM 30.3906 -98.2444 279° West 406 467 28,000  Level Houston Center
Tue 04:49:09 PM 30.4083 -98.3753 279° West 406 467 28,000  Level Houston Center
Tue 04:50:11 PM 30.4264 -98.5064 279° West 407 468 28,000  Level Houston Center
Tue 04:51:13 PM 30.4442 -98.6361 279° West 406 467 28,000  Level Houston Center
Tue 04:52:16 PM 30.4644 -98.7883 279° West 406 467 28,000  Level Houston Center
Tue 04:53:18 PM 30.4811 -98.9197 278° West 407 468 28,000  Level Houston Center
Tue 04:54:20 PM 30.4981 -99.0503 279° West 406 467 28,000 -97 Level Houston Center
Tue 04:56:24 PM 30.5319 -99.3011 279° West 406 467 27,700 -484 Descending Houston Center
Tue 04:57:26 PM 30.5525 -99.4592 279° West 413 475 26,500 -1,065 Descending Houston Center
Tue 04:58:28 PM 30.5706 -99.5936 279° West 421 484 25,500 -1,161 Descending Houston Center
Tue 04:59:30 PM 30.5878 -99.7256 279° West 417 480 24,100 -1,392 Descending Houston Center
Tue 05:00:33 PM 30.6331 -99.8431 294° West 420 483 22,600 -1,056 Descending Houston Center
Tue 05:01:35 PM 30.7253 -99.9200 324° Northwest 420 483 21,900 -339 Descending Houston Center
Tue 05:02:37 PM 30.8411 -100.0144 325° Northwest 428 493 21,900 48 Level Houston Center
Tue 05:03:39 PM 30.9375 -100.0928 325° Northwest 426 490 22,000  Climbing Houston Center
Tue 05:04:41 PM 31.0333 -100.1728 324° Northwest 426 490 21,900  Descending Houston Center
Tue 05:05:43 PM 31.0994 -100.2778 306° West 413 475 22,000 55 Climbing Houston Center
Tue 05:06:31 PM 31.1408 -100.3792 296° West 406 467 22,000  Level Fort Worth Center
Tue 05:07:31 PM 31.1944 -100.4925 299° West 400 460 22,000  Level Fort Worth Center
Tue 05:08:31 PM 31.2436 -100.6083 296° West 400 460 22,000  Level Fort Worth Center
Tue 05:09:31 PM 31.2950 -100.7267 297° West 400 460 22,000  Level Fort Worth Center
Tue 05:10:31 PM 31.3503 -100.8381 300° West 400 460 22,000  Level Fort Worth Center
Tue 05:10:54 PM 31.3681 -100.8767 298° West 410 472 22,000  Level Houston Center
Tue 05:11:31 PM 31.3994 -100.9544 295° West 405 466 22,000 -371 Level Fort Worth Center
Tue 05:12:31 PM 31.4503 -101.0708 297° West 405 466 21,400 -950 Descending Fort Worth Center
Tue 05:13:31 PM 31.5031 -101.1875 298° West 400 460 20,100 -1,450 Descending Fort Worth Center
Tue 05:14:31 PM 31.5581 -101.3042 299° West 400 460 18,500 -1,850 Descending Fort Worth Center
Tue 05:15:31 PM 31.6025 -101.4158 295° West 395 455 16,400 -1,650 Descending Fort Worth Center
Tue 05:16:31 PM 31.6492 -101.5253 297° West 390 449 15,200 -1,100 Descending Fort Worth Center
Tue 05:17:31 PM 31.6914 -101.6344 294° West 385 443 14,200 -600 Descending Fort Worth Center
Tue 05:18:31 PM 31.7231 -101.7483 288° West 373 429 14,000 -100 Descending Fort Worth Center
Tue 05:19:31 PM 31.7544 -101.8644 288° West 373 429 14,000 -1,000 Level Fort Worth Center
Tue 05:20:31 PM 31.7842 -101.9711 288° West 358 412 12,000 -1,800 Descending Fort Worth Center
Tue 05:21:31 PM 31.8097 -102.0700 287° West 337 388 10,400 -1,500 Descending Fort Worth Center
Tue 05:22:31 PM 31.8317 -102.1544 287° West 302 348 9,000 -1,600 Descending Fort Worth Center
Tue 05:23:31 PM 31.8514 -102.2386 285° West 278 320 7,200 -1,500 Descending Fort Worth Center
Tue 05:24:31 PM 31.8778 -102.3133 293° West 264 304 6,000 -600 Descending Fort Worth Center
Tue 05:25:31 PM 31.9261 -102.3525 325° Northwest 220 253 6,000  Level Fort Worth Center

Login

Don't have an account? Register now (free) for customized features, flight alerts, and more!